Terminal Aerodrome Forecast
Issued by NWS St Louis, MO

Home | Current Version | Previous Version | Text Only | Print | Product List | Glossary On
Versions: 1 2 3 4 5 6 7 8 9 10 11 12 13 14 15 16 17 18 19 20 21 22 23 24 25 26
000
FTUS43 KLSX 150536
TAFCOU
TAF
KCOU 150536Z 1506/1606 07005KT 4SM -FZDZ BR OVC010
     FM150700 07006KT 3SM FZRA BR OVC010
     FM151200 08006KT 2SM -FZRA BR OVC006
     FM152000 09006KT 2SM -RA BR OVC006
     FM160000 09007KT 2SM BR OVC006=

USA.gov is the U.S. government's official web portal to all federal, state and local government web resources and services.